Time;durP1;ratioP1;P1;durP2;ratioP2;P2;SDS_P1;SDS_P2;PMS_P1;PMS_P2;Temp;Humidity;BMP_temperature;BMP_pressure;BME280_temperature;BME280_humidity;BME280_pressure;Samples;Min_cycle;Max_cycle;Signal;HPM_P1;HPM_P2
2022/03/06 00:00:04;;;;;;;15.97;8.43;;;2.20;99.90;;;;;;5035043;28;20412;-83
2022/03/06 00:02:29;;;;;;;19.50;10.17;;;2.20;99.90;;;;;;5050474;28;20218;-83
2022/03/06 00:04:55;;;;;;;17.60;10.00;;;2.20;99.90;;;;;;5050215;28;20958;-84
2022/03/06 00:07:20;;;;;;;14.10;10.17;;;2.30;99.90;;;;;;5034398;28;20204;-84
2022/03/06 00:09:46;;;;;;;18.07;10.23;;;2.20;99.90;;;;;;5034872;28;20219;-84
2022/03/06 00:12:12;;;;;;;16.47;10.43;;;2.20;99.90;;;;;;5050463;28;20195;-84
2022/03/06 00:14:38;;;;;;;16.03;9.10;;;2.20;99.90;;;;;;5034769;28;20196;-84
2022/03/06 00:17:03;;;;;;;16.90;11.37;;;2.10;99.90;;;;;;5049810;28;20952;-84
2022/03/06 00:19:29;;;;;;;17.43;10.47;;;2.10;99.90;;;;;;5034702;28;20179;-83
2022/03/06 00:21:55;;;;;;;17.90;11.93;;;2.10;99.90;;;;;;5050069;28;20176;-83
2022/03/06 00:24:20;;;;;;;16.20;10.83;;;2.10;99.90;;;;;;5049945;28;20203;-84
2022/03/06 00:26:46;;;;;;;16.27;8.87;;;2.10;99.90;;;;;;5034370;28;20192;-84
2022/03/06 00:29:11;;;;;;;14.47;9.80;;;2.10;99.90;;;;;;5049901;28;20219;-83
2022/03/06 00:31:39;;;;;;;16.73;10.80;;;2.10;99.90;;;;;;5049864;28;20180;-84
2022/03/06 00:34:04;;;;;;;14.60;10.07;;;2.00;99.90;;;;;;5049832;28;20678;-84
2022/03/06 00:36:30;;;;;;;14.20;9.97;;;2.00;99.90;;;;;;5103938;22;21030;-65
2022/03/06 00:38:56;;;;;;;17.47;11.77;;;2.00;99.90;;;;;;5091135;28;20178;-66
2022/03/06 00:41:23;;;;;;;16.80;9.97;;;2.00;99.90;;;;;;5092613;28;20174;-66
2022/03/06 00:43:49;;;;;;;17.27;10.67;;;2.00;99.90;;;;;;5092653;28;20227;-66
2022/03/06 00:46:15;;;;;;;21.63;10.60;;;1.90;99.90;;;;;;5091532;28;20791;-66
2022/03/06 00:48:41;;;;;;;16.90;9.87;;;1.90;99.90;;;;;;5092390;28;20415;-66
2022/03/06 00:51:06;;;;;;;16.93;11.20;;;1.90;99.90;;;;;;5092468;28;20178;-65
2022/03/06 00:53:32;;;;;;;17.30;9.30;;;1.80;99.90;;;;;;5092458;28;20428;-66
2022/03/06 00:55:58;;;;;;;17.93;10.60;;;1.80;99.90;;;;;;5092077;28;20289;-66
2022/03/06 00:58:24;;;;;;;17.40;10.60;;;1.80;99.90;;;;;;5092144;28;20515;-65
2022/03/06 01:00:50;;;;;;;16.40;11.40;;;1.70;99.90;;;;;;5092187;28;20253;-66
2022/03/06 01:03:18;;;;;;;18.77;10.10;;;1.70;99.90;;;;;;5092329;28;20534;-66
2022/03/06 01:05:45;;;;;;;19.70;11.23;;;1.70;99.90;;;;;;5092015;28;20424;-65
2022/03/06 01:08:11;;;;;;;20.90;11.47;;;1.70;99.90;;;;;;5092036;28;20827;-66
2022/03/06 01:10:39;;;;;;;19.40;11.00;;;1.70;99.90;;;;;;5091965;28;20460;-65
2022/03/06 01:13:06;;;;;;;19.90;11.93;;;1.70;99.90;;;;;;5092007;28;20420;-65
2022/03/06 01:15:32;;;;;;;16.30;10.77;;;1.70;99.90;;;;;;5091705;28;20456;-65
2022/03/06 01:17:58;;;;;;;17.37;11.70;;;1.70;99.90;;;;;;5091658;28;20466;-65
2022/03/06 01:20:24;;;;;;;15.37;11.10;;;1.60;99.90;;;;;;5091122;28;20637;-66
2022/03/06 01:22:51;;;;;;;19.27;11.43;;;1.50;99.90;;;;;;5091809;28;20817;-66
2022/03/06 01:25:17;;;;;;;17.23;11.20;;;1.40;99.90;;;;;;5091715;28;20426;-65
2022/03/06 01:27:43;;;;;;;16.77;10.40;;;1.30;99.90;;;;;;5091326;28;20492;-66
2022/03/06 01:30:11;;;;;;;18.87;9.60;;;1.30;99.90;;;;;;5091646;28;20459;-65
2022/03/06 01:32:37;;;;;;;16.20;9.90;;;1.40;99.90;;;;;;5091735;28;20232;-66
2022/03/06 01:35:04;;;;;;;21.50;11.03;;;1.40;99.90;;;;;;5091436;28;20412;-65
2022/03/06 01:37:31;;;;;;;17.17;12.37;;;1.30;99.90;;;;;;5091186;28;20468;-67
2022/03/06 01:39:57;;;;;;;16.33;10.00;;;1.40;99.90;;;;;;5091507;28;20503;-66
2022/03/06 01:42:23;;;;;;;15.80;9.40;;;1.40;99.90;;;;;;5091341;28;20438;-65
2022/03/06 01:44:50;;;;;;;19.20;11.77;;;1.30;99.90;;;;;;5091476;28;20504;-65
2022/03/06 01:47:42;;;;;;;21.87;11.47;;;1.30;99.90;;;;;;5091066;28;20447;-65
2022/03/06 01:50:30;;;;;;;19.10;12.57;;;1.30;99.90;;;;;;5091277;28;20431;-66
2022/03/06 01:52:58;;;;;;;20.03;11.30;;;1.30;99.90;;;;;;5091187;28;20430;-66
2022/03/06 01:55:25;;;;;;;19.57;11.03;;;1.30;99.90;;;;;;5091125;28;20517;-65
2022/03/06 01:57:56;;;;;;;17.80;10.20;;;1.20;99.90;;;;;;5090631;28;20889;-65
2022/03/06 02:00:25;;;;;;;23.13;11.13;;;1.20;99.90;;;;;;5091135;28;20431;-66
2022/03/06 02:02:51;;;;;;;18.00;11.80;;;1.20;99.90;;;;;;5090988;28;20456;-65
2022/03/06 02:05:18;;;;;;;17.33;11.00;;;1.20;99.90;;;;;;5091226;28;20512;-66
2022/03/06 02:07:44;;;;;;;14.03;9.53;;;1.20;99.90;;;;;;5090758;28;20481;-65
2022/03/06 02:10:10;;;;;;;16.23;10.20;;;1.20;99.90;;;;;;5091099;28;20785;-65
2022/03/06 02:12:36;;;;;;;16.07;9.80;;;1.20;99.90;;;;;;5090915;28;20427;-66
2022/03/06 02:15:05;;;;;;;17.00;10.03;;;1.10;99.90;;;;;;5090614;28;20577;-65
2022/03/06 02:17:31;;;;;;;20.00;10.43;;;0.90;99.90;;;;;;5090617;28;20441;-66
2022/03/06 02:19:58;;;;;;;14.83;9.87;;;0.90;99.90;;;;;;5090738;28;20949;-66
2022/03/06 02:22:38;;;;;;;18.37;10.60;;;0.90;99.90;;;;;;5090902;28;20270;-66
2022/03/06 02:25:10;;;;;;;14.27;9.40;;;0.70;99.90;;;;;;5090579;28;20416;-66
2022/03/06 02:27:37;;;;;;;12.73;9.20;;;0.70;99.90;;;;;;5090637;28;20438;-65
2022/03/06 02:30:12;;;;;;;13.70;8.70;;;0.80;99.90;;;;;;5090649;28;20409;-65
2022/03/06 02:32:39;;;;;;;18.80;11.07;;;0.60;99.90;;;;;;5090040;28;20566;-66
2022/03/06 02:35:07;;;;;;;20.37;11.17;;;0.50;99.90;;;;;;5089099;28;21001;-66
2022/03/06 02:37:33;;;;;;;15.17;10.13;;;0.60;99.90;;;;;;5089972;28;20435;-65
2022/03/06 02:40:06;;;;;;;20.47;12.20;;;0.70;99.90;;;;;;5090362;28;20418;-66
2022/03/06 02:42:34;;;;;;;15.90;9.60;;;0.60;99.90;;;;;;5090608;28;20450;-66
2022/03/06 02:45:05;;;;;;;18.97;9.53;;;0.60;99.90;;;;;;5090566;28;20851;-66
2022/03/06 02:47:31;;;;;;;16.70;9.63;;;0.70;99.90;;;;;;5090360;28;20465;-66
2022/03/06 02:49:57;;;;;;;19.33;12.40;;;0.70;99.90;;;;;;5090535;28;20455;-66
2022/03/06 02:52:23;;;;;;;19.97;10.43;;;0.70;99.90;;;;;;5090445;28;20185;-66
2022/03/06 02:54:49;;;;;;;17.50;10.37;;;0.70;99.90;;;;;;5090414;28;20181;-66
2022/03/06 02:57:14;;;;;;;18.37;10.80;;;0.70;99.90;;;;;;5089991;28;20690;-66
2022/03/06 02:59:40;;;;;;;18.13;12.17;;;0.80;99.90;;;;;;5090432;28;20413;-66
2022/03/06 03:02:07;;;;;;;16.43;10.17;;;0.80;99.90;;;;;;5090323;28;20647;-66
2022/03/06 03:04:33;;;;;;;15.87;10.23;;;0.90;99.90;;;;;;5090367;28;20473;-66
2022/03/06 03:06:59;;;;;;;20.00;10.97;;;0.90;99.90;;;;;;5090307;28;20985;-65
2022/03/06 03:09:25;;;;;;;17.70;10.60;;;0.90;99.90;;;;;;5092648;28;20449;-65
2022/03/06 03:11:52;;;;;;;21.63;11.47;;;0.90;99.90;;;;;;5094171;28;20421;-65
2022/03/06 03:14:18;;;;;;;19.17;12.77;;;1.00;99.90;;;;;;5094348;28;20419;-66
2022/03/06 03:16:44;;;;;;;14.63;10.03;;;1.00;99.90;;;;;;5093793;28;20467;-66
2022/03/06 03:19:10;;;;;;;19.00;11.43;;;0.90;99.90;;;;;;5094193;28;20416;-65
2022/03/06 03:21:36;;;;;;;15.93;10.30;;;1.00;99.90;;;;;;5094145;28;20471;-65
2022/03/06 03:24:03;;;;;;;16.60;9.90;;;1.00;99.90;;;;;;5093944;28;20414;-65
2022/03/06 03:26:28;;;;;;;16.37;10.80;;;1.10;99.90;;;;;;5094083;28;20438;-66
2022/03/06 03:28:54;;;;;;;16.10;9.60;;;1.10;99.90;;;;;;5093888;28;20957;-65
2022/03/06 03:31:20;;;;;;;18.27;10.73;;;1.10;99.90;;;;;;5094004;28;20189;-66
2022/03/06 03:33:46;;;;;;;16.17;10.60;;;1.10;99.90;;;;;;5093792;28;20185;-66
2022/03/06 03:36:12;;;;;;;18.07;10.40;;;1.10;99.90;;;;;;5093777;28;20303;-66
2022/03/06 03:38:40;;;;;;;17.77;10.60;;;1.20;99.90;;;;;;5093734;28;20438;-65
2022/03/06 03:41:09;;;;;;;13.63;9.83;;;1.20;99.90;;;;;;5094301;28;20422;-65
2022/03/06 03:43:35;;;;;;;17.50;10.23;;;1.20;99.90;;;;;;5093898;28;20420;-65
2022/03/06 03:46:01;;;;;;;18.90;10.67;;;1.10;99.90;;;;;;5093519;28;20446;-65
2022/03/06 03:48:29;;;;;;;24.20;11.27;;;1.10;99.90;;;;;;5093249;28;20457;-66
2022/03/06 03:50:56;;;;;;;15.57;10.00;;;1.20;99.90;;;;;;5093042;28;20842;-65
2022/03/06 03:53:22;;;;;;;17.63;11.57;;;1.20;99.90;;;;;;5093486;28;20422;-65
2022/03/06 03:55:49;;;;;;;15.67;10.07;;;1.20;99.90;;;;;;5093450;28;20474;-65
2022/03/06 03:58:15;;;;;;;19.67;11.07;;;1.20;99.90;;;;;;5093409;28;20472;-65
2022/03/06 04:00:45;;;;;;;20.73;11.50;;;1.20;99.90;;;;;;5093634;28;20420;-65
2022/03/06 04:03:11;;;;;;;17.10;12.53;;;1.20;99.90;;;;;;5093405;28;20740;-65
2022/03/06 04:05:37;;;;;;;17.90;10.70;;;1.30;99.90;;;;;;5093071;28;20847;-66
2022/03/06 04:08:03;;;;;;;19.53;11.00;;;1.20;99.90;;;;;;5093189;28;20730;-65
2022/03/06 04:10:29;;;;;;;23.60;12.60;;;1.30;99.90;;;;;;5093151;28;20426;-66
2022/03/06 04:12:55;;;;;;;17.47;11.23;;;1.20;99.90;;;;;;5093179;28;20427;-66
2022/03/06 04:15:20;;;;;;;17.33;12.37;;;1.20;99.90;;;;;;5093021;28;20989;-66
2022/03/06 04:17:46;;;;;;;18.60;9.93;;;1.10;99.90;;;;;;5093019;28;20958;-66
2022/03/06 04:20:12;;;;;;;20.37;10.10;;;1.10;99.90;;;;;;5091711;28;20190;-65
2022/03/06 04:22:38;;;;;;;13.17;10.10;;;1.10;99.90;;;;;;5093179;28;20483;-65
2022/03/06 04:25:04;;;;;;;20.63;11.47;;;1.10;99.90;;;;;;5092626;28;20186;-65
2022/03/06 04:27:30;;;;;;;17.50;10.27;;;1.10;99.90;;;;;;5092550;28;20206;-65
2022/03/06 04:29:56;;;;;;;20.90;11.80;;;1.10;99.90;;;;;;5092903;28;20431;-65
2022/03/06 04:32:23;;;;;;;25.77;12.63;;;1.10;99.90;;;;;;5092761;28;20504;-66
2022/03/06 04:34:49;;;;;;;17.83;11.90;;;1.10;99.90;;;;;;5092659;28;20613;-65
2022/03/06 04:37:15;;;;;;;16.70;10.60;;;1.20;99.90;;;;;;5092227;28;21085;-65
2022/03/06 04:39:41;;;;;;;19.90;11.87;;;1.20;99.90;;;;;;5092688;28;20495;-66
2022/03/06 04:42:07;;;;;;;16.97;10.27;;;1.10;99.90;;;;;;5092668;28;20465;-66
2022/03/06 04:44:34;;;;;;;17.60;10.60;;;1.10;99.90;;;;;;5075911;28;20204;-65
2022/03/06 04:47:00;;;;;;;18.87;11.00;;;1.20;99.90;;;;;;5092550;28;20969;-65
2022/03/06 04:49:26;;;;;;;20.17;12.00;;;1.30;99.90;;;;;;5092410;28;20420;-66
2022/03/06 04:51:51;;;;;;;18.30;10.57;;;1.30;99.90;;;;;;5092455;28;20193;-65
2022/03/06 04:54:17;;;;;;;19.10;11.37;;;1.40;99.90;;;;;;5092273;28;20718;-66
2022/03/06 04:56:43;;;;;;;18.67;11.20;;;1.40;99.90;;;;;;5091999;28;20669;-66
2022/03/06 04:59:08;;;;;;;17.40;11.43;;;1.40;99.90;;;;;;5092120;28;20182;-65
2022/03/06 05:01:34;;;;;;;17.27;10.43;;;1.30;99.90;;;;;;5092201;28;20182;-65
2022/03/06 05:04:02;;;;;;;18.87;12.10;;;1.40;99.90;;;;;;5092022;28;20175;-66
2022/03/06 05:06:28;;;;;;;16.50;10.80;;;1.40;99.90;;;;;;5091771;28;20224;-65
2022/03/06 05:08:54;;;;;;;16.60;11.87;;;1.50;99.90;;;;;;5091964;28;20454;-66
2022/03/06 05:11:20;;;;;;;16.20;10.13;;;1.50;99.90;;;;;;5092066;28;20194;-66
2022/03/06 05:13:46;;;;;;;17.10;10.53;;;1.50;99.90;;;;;;5092043;28;20790;-65
2022/03/06 05:16:11;;;;;;;18.07;10.80;;;1.50;99.90;;;;;;5091563;28;20581;-66
2022/03/06 05:18:37;;;;;;;18.10;11.10;;;1.60;99.90;;;;;;5091754;28;20179;-65
2022/03/06 05:21:05;;;;;;;22.57;11.60;;;1.50;99.90;;;;;;5091768;28;20445;-65
2022/03/06 05:23:30;;;;;;;22.47;11.67;;;1.60;99.90;;;;;;5091793;28;20430;-66
2022/03/06 05:25:57;;;;;;;19.97;10.83;;;1.60;99.90;;;;;;5091597;28;20452;-66
2022/03/06 05:28:23;;;;;;;22.37;12.30;;;1.60;99.90;;;;;;5091252;28;20224;-66
2022/03/06 05:30:50;;;;;;;16.40;11.47;;;1.60;99.90;;;;;;5090775;28;20525;-65
2022/03/06 05:33:16;;;;;;;20.00;12.27;;;1.60;99.90;;;;;;5091779;28;20927;-65
2022/03/06 05:35:42;;;;;;;19.03;12.10;;;1.60;99.90;;;;;;5091076;28;20998;-65
2022/03/06 05:38:07;;;;;;;14.77;11.07;;;1.60;99.90;;;;;;5091315;28;20432;-65
2022/03/06 05:40:33;;;;;;;15.50;9.93;;;1.50;99.90;;;;;;5091715;28;20181;-65
2022/03/06 05:42:59;;;;;;;16.83;10.40;;;1.50;99.90;;;;;;5091480;28;20190;-66
2022/03/06 05:45:28;;;;;;;16.10;11.27;;;1.50;99.90;;;;;;5091269;28;20438;-65
2022/03/06 05:47:54;;;;;;;15.80;10.60;;;1.50;99.90;;;;;;5091156;28;20503;-65
2022/03/06 05:50:20;;;;;;;17.80;11.70;;;1.50;99.90;;;;;;5091323;28;20460;-65
2022/03/06 05:52:48;;;;;;;17.07;11.00;;;1.50;99.90;;;;;;5091105;28;20421;-66
2022/03/06 05:55:14;;;;;;;19.47;12.27;;;1.40;99.90;;;;;;5091153;28;20281;-65
2022/03/06 05:57:40;;;;;;;18.07;12.17;;;1.40;99.90;;;;;;5090849;28;20444;-65
2022/03/06 06:00:08;;;;;;;17.80;9.90;;;1.40;99.90;;;;;;5091046;28;20419;-65
2022/03/06 06:02:38;;;;;;;18.07;11.33;;;1.30;99.90;;;;;;5091119;28;20454;-65
2022/03/06 06:05:08;;;;;;;18.47;10.90;;;1.30;99.90;;;;;;5091144;28;20521;-65
2022/03/06 06:07:36;;;;;;;17.73;11.03;;;1.20;99.90;;;;;;5090678;28;20483;-66
2022/03/06 06:10:03;;;;;;;15.50;10.53;;;1.20;99.90;;;;;;5091056;28;20438;-65
2022/03/06 06:12:28;;;;;;;19.60;11.27;;;1.20;99.90;;;;;;5090710;28;20415;-65
2022/03/06 06:14:54;;;;;;;20.43;10.80;;;1.10;99.90;;;;;;5090968;28;20423;-65
2022/03/06 06:17:20;;;;;;;18.57;11.23;;;1.00;99.90;;;;;;5090437;28;20219;-66
2022/03/06 06:19:46;;;;;;;18.80;12.40;;;1.00;99.90;;;;;;5090838;28;20193;-65
2022/03/06 06:22:11;;;;;;;21.20;11.13;;;1.00;99.90;;;;;;5091096;28;20908;-66
2022/03/06 06:24:37;;;;;;;18.30;11.63;;;1.00;99.90;;;;;;5090869;28;20412;-65
2022/03/06 06:27:03;;;;;;;15.20;11.10;;;1.10;99.90;;;;;;5090275;28;20588;-66
2022/03/06 06:29:30;;;;;;;16.37;10.93;;;1.20;99.90;;;;;;5090573;28;20641;-65
2022/03/06 06:31:56;;;;;;;21.00;12.17;;;1.20;99.90;;;;;;5090724;28;20804;-66
2022/03/06 06:34:22;;;;;;;17.37;11.17;;;1.20;99.90;;;;;;5090636;28;20439;-65
2022/03/06 06:36:49;;;;;;;20.23;12.73;;;1.20;99.90;;;;;;5102795;22;20465;-67
2022/03/06 06:39:15;;;;;;;17.47;11.93;;;1.30;99.90;;;;;;5091230;28;20516;-67
2022/03/06 06:41:41;;;;;;;17.73;10.20;;;1.30;99.90;;;;;;5091446;28;20510;-67
2022/03/06 06:44:08;;;;;;;20.93;12.37;;;1.30;99.90;;;;;;5090617;28;20451;-67
2022/03/06 06:46:35;;;;;;;18.13;12.10;;;1.30;99.90;;;;;;5091060;28;20520;-67
2022/03/06 06:49:03;;;;;;;17.53;11.57;;;1.40;99.90;;;;;;5091225;28;21132;-67
2022/03/06 06:51:29;;;;;;;19.40;10.80;;;1.50;99.90;;;;;;5091156;28;20415;-67
2022/03/06 06:53:55;;;;;;;19.63;12.00;;;1.50;99.90;;;;;;5091320;28;20928;-67
2022/03/06 06:56:21;;;;;;;16.63;11.50;;;1.50;99.90;;;;;;5090179;28;20459;-67
2022/03/06 06:58:46;;;;;;;19.03;12.67;;;1.50;99.90;;;;;;5091106;28;20906;-67
2022/03/06 07:01:14;;;;;;;22.93;11.23;;;1.60;99.90;;;;;;5090936;28;20536;-67
2022/03/06 07:03:40;;;;;;;16.77;11.50;;;1.70;99.90;;;;;;5090965;28;20179;-67
2022/03/06 07:06:06;;;;;;;16.83;10.30;;;1.70;99.90;;;;;;5090771;28;20969;-68
2022/03/06 07:08:32;;;;;;;15.53;10.70;;;1.70;99.90;;;;;;5090832;28;20569;-67
2022/03/06 07:10:57;;;;;;;19.90;12.40;;;1.70;99.90;;;;;;5090875;28;20185;-67
2022/03/06 07:13:23;;;;;;;19.07;11.43;;;1.70;99.90;;;;;;5090847;28;20182;-66
2022/03/06 07:15:49;;;;;;;16.70;11.50;;;1.80;99.90;;;;;;5090536;28;20206;-66
2022/03/06 07:18:15;;;;;;;16.27;11.70;;;1.90;99.90;;;;;;5090780;28;20178;-66
2022/03/06 07:20:41;;;;;;;18.50;11.97;;;1.80;99.90;;;;;;5090882;28;20436;-66
2022/03/06 07:23:06;;;;;;;16.90;12.00;;;1.90;99.90;;;;;;5090710;28;20180;-67
2022/03/06 07:25:32;;;;;;;17.13;10.73;;;1.90;99.90;;;;;;5090613;28;20228;-66
2022/03/06 07:27:58;;;;;;;18.40;12.37;;;2.00;99.90;;;;;;5090548;28;20209;-67
2022/03/06 07:30:24;;;;;;;15.07;10.17;;;2.00;99.90;;;;;;5091110;28;20444;-67
2022/03/06 07:32:51;;;;;;;17.17;10.30;;;2.10;99.90;;;;;;5090643;28;20706;-67
2022/03/06 07:35:19;;;;;;;21.87;12.90;;;2.20;99.90;;;;;;5090802;28;20277;-67
2022/03/06 07:37:45;;;;;;;16.30;11.60;;;2.40;99.90;;;;;;5090864;28;20460;-67
2022/03/06 07:40:13;;;;;;;16.80;12.00;;;2.00;99.90;;;;;;5091101;28;20506;-67
2022/03/06 07:42:39;;;;;;;22.40;13.70;;;2.10;99.90;;;;;;5091136;28;20481;-67
2022/03/06 07:45:06;;;;;;;19.53;11.63;;;2.20;99.90;;;;;;5091311;28;20413;-67
2022/03/06 07:47:32;;;;;;;14.77;11.17;;;2.40;99.90;;;;;;5090513;28;20451;-67
2022/03/06 07:49:58;;;;;;;19.60;10.97;;;2.60;99.90;;;;;;5091503;28;20406;-67
2022/03/06 07:52:24;;;;;;;16.67;11.43;;;2.80;99.90;;;;;;5090827;28;20227;-67
2022/03/06 07:54:50;;;;;;;19.90;12.80;;;2.80;99.90;;;;;;5091765;28;20867;-67
2022/03/06 07:57:16;;;;;;;20.60;11.90;;;2.80;99.90;;;;;;5093424;28;20467;-67
2022/03/06 07:59:41;;;;;;;17.33;12.10;;;2.80;99.90;;;;;;5093199;28;20558;-67
2022/03/06 08:02:07;;;;;;;19.27;12.03;;;2.70;99.90;;;;;;5094126;28;20182;-66
2022/03/06 08:04:33;;;;;;;18.10;10.93;;;2.80;99.90;;;;;;5093865;28;20645;-67
2022/03/06 08:06:58;;;;;;;16.40;12.47;;;2.70;99.90;;;;;;5093523;28;20198;-67
2022/03/06 08:09:24;;;;;;;17.67;11.17;;;2.70;99.90;;;;;;5093726;28;20182;-67
2022/03/06 08:11:51;;;;;;;15.83;10.27;;;2.80;99.90;;;;;;5093631;28;20190;-67
2022/03/06 08:14:17;;;;;;;22.40;11.67;;;2.90;99.90;;;;;;5094049;28;20279;-67
2022/03/06 08:16:43;;;;;;;28.70;12.93;;;2.80;99.90;;;;;;5093389;28;20464;-67
2022/03/06 08:19:09;;;;;;;19.07;12.13;;;2.80;99.90;;;;;;5093503;28;20405;-67
2022/03/06 08:21:35;;;;;;;20.93;12.63;;;2.90;99.90;;;;;;5093366;28;20424;-67
2022/03/06 08:24:01;;;;;;;19.73;12.20;;;2.90;99.90;;;;;;5093487;28;20535;-68
2022/03/06 08:26:27;;;;;;;17.40;11.83;;;3.10;99.90;;;;;;5093257;28;20208;-67
2022/03/06 08:28:53;;;;;;;21.83;11.77;;;3.30;99.90;;;;;;5092666;28;20178;-68
2022/03/06 08:31:19;;;;;;;19.43;12.13;;;3.40;99.90;;;;;;5092786;28;20460;-67
2022/03/06 08:33:45;;;;;;;19.93;12.10;;;3.50;99.90;;;;;;5094300;28;20948;-68
2022/03/06 08:36:11;;;;;;;18.60;11.93;;;3.40;99.90;;;;;;5093116;28;20884;-67
2022/03/06 08:38:38;;;;;;;20.30;12.30;;;3.50;99.90;;;;;;5092794;28;20432;-67
2022/03/06 08:41:03;;;;;;;17.37;11.87;;;3.50;99.90;;;;;;5092944;28;20948;-67
2022/03/06 08:43:29;;;;;;;17.60;12.00;;;3.70;99.90;;;;;;5092956;28;20424;-67
2022/03/06 08:45:55;;;;;;;18.23;13.00;;;3.80;99.90;;;;;;5093534;28;20210;-67
2022/03/06 08:48:21;;;;;;;17.33;11.47;;;3.90;99.90;;;;;;5092339;28;20203;-67
2022/03/06 08:50:49;;;;;;;21.70;11.80;;;4.20;99.90;;;;;;5092494;28;20246;-67
2022/03/06 08:53:18;;;;;;;21.67;12.80;;;4.20;99.90;;;;;;5092543;28;20484;-67
2022/03/06 08:55:45;;;;;;;16.53;12.07;;;4.60;99.90;;;;;;5092367;28;20457;-67
2022/03/06 08:58:11;;;;;;;19.70;12.03;;;5.00;99.90;;;;;;5092413;28;20407;-67
2022/03/06 09:00:37;;;;;;;16.97;10.87;;;5.40;99.90;;;;;;5092560;28;20483;-67
2022/03/06 09:03:02;;;;;;;15.40;10.93;;;5.80;99.90;;;;;;5092676;28;20667;-67
2022/03/06 09:05:28;;;;;;;22.87;12.60;;;6.40;99.90;;;;;;5092183;28;20210;-67
2022/03/06 09:07:56;;;;;;;19.90;11.53;;;6.40;99.90;;;;;;5091257;28;20188;-67
2022/03/06 09:10:22;;;;;;;20.07;12.40;;;6.90;99.90;;;;;;5092286;28;20180;-67
2022/03/06 09:12:48;;;;;;;25.90;13.33;;;7.10;99.90;;;;;;5092072;28;20847;-68
2022/03/06 09:15:14;;;;;;;25.17;12.60;;;7.20;99.90;;;;;;5092155;28;20530;-68
2022/03/06 09:17:40;;;;;;;17.47;11.50;;;7.00;99.90;;;;;;5092193;28;20692;-68
2022/03/06 09:20:07;;;;;;;18.37;11.80;;;6.90;99.90;;;;;;5091993;28;20213;-67
2022/03/06 09:22:33;;;;;;;19.20;12.73;;;7.10;99.90;;;;;;5092285;28;20921;-67
2022/03/06 09:24:59;;;;;;;20.07;14.50;;;7.30;99.90;;;;;;5092176;28;20403;-68
2022/03/06 09:27:25;;;;;;;21.50;12.50;;;7.50;99.90;;;;;;5091747;28;20448;-68
2022/03/06 09:29:50;;;;;;;19.07;13.10;;;8.00;99.90;;;;;;5091802;28;20187;-67
2022/03/06 09:32:16;;;;;;;19.30;11.10;;;8.40;99.90;;;;;;5092013;28;20273;-67
2022/03/06 09:34:43;;;;;;;20.47;12.10;;;8.70;99.90;;;;;;5091892;28;20185;-68
2022/03/06 09:37:09;;;;;;;16.60;12.00;;;9.00;99.90;;;;;;5091435;28;20214;-68
2022/03/06 09:39:35;;;;;;;14.53;11.77;;;9.10;99.90;;;;;;5089231;28;20784;-68
2022/03/06 09:42:00;;;;;;;16.57;10.73;;;9.20;99.90;;;;;;5078097;28;20482;-67
2022/03/06 09:44:27;;;;;;;15.27;10.90;;;9.40;99.90;;;;;;5089174;28;20833;-67
2022/03/06 09:46:56;;;;;;;19.50;12.77;;;9.60;99.90;;;;;;5090930;28;20510;-67
2022/03/06 09:49:22;;;;;;;21.90;12.40;;;10.00;99.90;;;;;;5091518;28;20921;-68
2022/03/06 09:51:48;;;;;;;17.33;12.13;;;10.10;99.90;;;;;;5091533;28;20416;-68
2022/03/06 09:54:16;;;;;;;16.93;11.43;;;10.40;99.90;;;;;;5091743;28;20968;-67
2022/03/06 09:56:42;;;;;;;19.80;11.90;;;10.40;99.90;;;;;;5090085;28;20593;-68
2022/03/06 09:59:08;;;;;;;18.80;12.80;;;10.40;99.00;;;;;;5091086;28;20790;-67
2022/03/06 10:01:34;;;;;;;19.60;11.43;;;10.30;99.20;;;;;;5091229;28;20416;-67
2022/03/06 10:04:26;;;;;;;17.00;13.13;;;9.90;99.90;;;;;;5090820;28;20503;-67
2022/03/06 10:07:03;;;;;;;17.70;12.20;;;9.90;99.90;;;;;;5090908;28;20433;-67
2022/03/06 10:09:30;;;;;;;19.33;11.50;;;10.10;99.90;;;;;;5091372;28;20444;-67
2022/03/06 10:11:56;;;;;;;16.30;11.17;;;10.10;99.90;;;;;;5091091;28;20427;-67
2022/03/06 10:14:42;;;;;;;20.30;11.30;;;9.90;99.90;;;;;;5091461;28;20764;-67
2022/03/06 10:17:21;;;;;;;18.37;12.33;;;9.90;99.90;;;;;;5086878;28;20464;-67
2022/03/06 10:19:54;;;;;;;16.90;12.60;;;9.90;99.70;;;;;;5087756;28;20555;-67
2022/03/06 10:22:22;;;;;;;20.07;12.87;;;10.30;99.50;;;;;;5087705;28;20426;-67
2022/03/06 10:25:07;;;;;;;20.40;13.90;;;10.10;99.10;;;;;;5080650;28;20515;-68
2022/03/06 10:27:57;;;;;;;20.50;12.80;;;10.00;99.70;;;;;;5073017;28;20453;-68
2022/03/06 10:30:38;;;;;;;23.37;16.67;;;10.00;99.90;;;;;;5070814;28;20428;-68
2022/03/06 10:33:07;;;;;;;19.93;14.47;;;11.10;99.90;;;;;;5070917;28;20429;-68
2022/03/06 10:35:41;;;;;;;19.90;13.97;;;12.10;99.90;;;;;;5070691;28;20596;-68
2022/03/06 10:38:37;;;;;;;20.93;13.73;;;13.40;99.90;;;;;;5070698;28;20436;-68
2022/03/06 10:41:17;;;;;;;18.57;14.53;;;13.50;95.00;;;;;;5053974;28;20413;-68
2022/03/06 10:43:43;;;;;;;20.50;15.07;;;13.30;94.30;;;;;;5071388;28;20519;-68
2022/03/06 10:46:17;;;;;;;22.27;15.63;;;14.00;95.10;;;;;;5070592;28;20428;-68
2022/03/06 10:48:54;;;;;;;23.83;15.60;;;13.70;94.50;;;;;;5070933;28;20456;-68
2022/03/06 10:51:21;;;;;;;20.63;14.53;;;13.80;94.50;;;;;;5071138;28;20605;-68
2022/03/06 10:53:54;;;;;;;20.50;13.73;;;13.00;95.00;;;;;;5070852;28;20428;-67
2022/03/06 10:56:21;;;;;;;21.60;14.90;;;12.20;94.00;;;;;;5070971;28;20560;-68
2022/03/06 10:58:48;;;;;;;19.17;14.47;;;11.90;94.90;;;;;;5070868;28;20528;-68
2022/03/06 11:01:14;;;;;;;18.50;12.73;;;11.90;95.10;;;;;;5070817;28;20853;-67
2022/03/06 11:03:40;;;;;;;20.40;14.40;;;11.90;94.30;;;;;;5070807;28;20814;-68
2022/03/06 11:06:11;;;;;;;19.83;14.40;;;11.70;95.30;;;;;;5070608;28;20452;-68
2022/03/06 11:08:38;;;;;;;21.40;16.13;;;12.50;95.00;;;;;;5070710;28;20470;-68
2022/03/06 11:11:06;;;;;;;21.53;14.00;;;13.10;93.40;;;;;;5070647;28;20879;-68
2022/03/06 11:13:32;;;;;;;24.17;14.20;;;13.70;93.40;;;;;;5070768;28;20417;-68
2022/03/06 11:15:59;;;;;;;20.33;14.93;;;14.00;91.80;;;;;;5070820;28;20503;-68
2022/03/06 11:18:26;;;;;;;20.90;14.80;;;13.90;90.40;;;;;;5070835;28;20417;-68
2022/03/06 11:20:54;;;;;;;19.40;13.20;;;13.70;85.90;;;;;;5070999;28;20423;-68
2022/03/06 11:23:51;;;;;;;21.80;15.13;;;13.30;86.90;;;;;;5071154;28;20414;-68
2022/03/06 11:26:48;;;;;;;18.50;13.33;;;13.40;88.50;;;;;;5071454;28;20449;-68
2022/03/06 11:29:36;;;;;;;19.20;13.83;;;15.10;84.50;;;;;;5003065;28;20920;-68
2022/03/06 11:32:06;;;;;;;28.70;14.60;;;16.20;79.10;;;;;;5074304;28;20417;-68
2022/03/06 11:34:35;;;;;;;18.97;14.10;;;15.40;75.50;;;;;;5073937;28;20789;-68
2022/03/06 11:37:09;;;;;;;16.63;13.00;;;15.90;72.90;;;;;;5073379;28;20563;-68
2022/03/06 11:39:35;;;;;;;19.07;12.63;;;16.30;68.10;;;;;;5073691;28;20409;-68
2022/03/06 11:42:06;;;;;;;17.60;12.47;;;17.10;67.80;;;;;;5073683;28;20421;-68
2022/03/06 11:44:50;;;;;;;15.57;11.97;;;18.10;62.40;;;;;;5073826;28;20182;-68
2022/03/06 11:47:21;;;;;;;16.17;12.13;;;18.40;56.50;;;;;;5073373;28;20861;-68
2022/03/06 11:50:02;;;;;;;15.77;12.83;;;18.90;55.00;;;;;;5073667;28;20512;-68
2022/03/06 11:52:32;;;;;;;17.80;13.63;;;19.30;52.00;;;;;;5073694;28;20508;-68
2022/03/06 11:54:59;;;;;;;17.40;12.03;;;18.60;48.70;;;;;;5073936;28;20421;-68
2022/03/06 11:57:38;;;;;;;19.90;12.73;;;17.80;49.60;;;;;;5073188;28;20702;-68
2022/03/06 12:00:24;;;;;;;19.50;14.70;;;18.10;49.50;;;;;;5073332;28;20774;-68
2022/03/06 12:02:55;;;;;;;16.40;12.60;;;18.40;50.90;;;;;;5073419;28;20527;-68
2022/03/06 12:05:22;;;;;;;17.67;13.77;;;18.70;50.40;;;;;;5073364;28;20421;-68
2022/03/06 12:07:50;;;;;;;17.87;14.60;;;20.50;48.80;;;;;;5073000;28;20533;-68
2022/03/06 12:10:17;;;;;;;17.97;13.77;;;19.50;45.50;;;;;;5073556;28;20467;-68
2022/03/06 12:12:55;;;;;;;17.33;13.10;;;19.60;46.50;;;;;;5073233;28;20421;-68
2022/03/06 12:15:26;;;;;;;18.87;14.73;;;21.70;45.20;;;;;;5073312;28;20975;-68
2022/03/06 12:17:52;;;;;;;19.23;15.73;;;21.70;43.90;;;;;;5072635;28;20974;-68
2022/03/06 12:20:24;;;;;;;21.50;16.10;;;20.40;43.30;;;;;;5073101;28;20426;-68
2022/03/06 12:22:55;;;;;;;21.10;14.20;;;19.20;43.40;;;;;;5072901;28;20183;-68
2022/03/06 12:25:31;;;;;;;21.30;15.40;;;18.50;44.10;;;;;;5072952;28;20432;-68
2022/03/06 12:28:03;;;;;;;18.13;13.37;;;17.30;43.30;;;;;;5072898;28;20784;-68
2022/03/06 12:30:31;;;;;;;16.70;13.40;;;16.40;43.50;;;;;;5073238;28;20421;-68
2022/03/06 12:32:57;;;;;;;16.00;12.33;;;16.70;43.50;;;;;;5072669;28;20440;-68
2022/03/06 12:35:25;;;;;;;16.97;12.03;;;16.30;43.10;;;;;;5075032;28;20424;-67
2022/03/06 12:38:00;;;;;;;17.73;12.37;;;15.20;42.70;;;;;;5081363;28;20547;-67